createdAt,value
2022-09-23T00:00:12.958Z,99.90
2022-09-23T00:02:39.679Z,99.90
2022-09-23T00:05:07.019Z,99.90
2022-09-23T00:07:33.796Z,99.90
2022-09-23T00:10:00.634Z,99.90
2022-09-23T00:12:27.344Z,99.90
2022-09-23T00:14:54.207Z,99.90
2022-09-23T00:17:20.905Z,99.90
2022-09-23T00:19:48.317Z,99.90
2022-09-23T00:22:15.712Z,99.90
2022-09-23T00:24:42.383Z,99.90
2022-09-23T00:27:09.833Z,99.90
2022-09-23T00:29:36.904Z,99.90
2022-09-23T00:32:04.553Z,99.90
2022-09-23T00:34:31.357Z,99.90
2022-09-23T00:36:58.047Z,99.90
2022-09-23T00:39:26.068Z,99.90
2022-09-23T00:41:52.793Z,99.90
2022-09-23T00:44:44.361Z,99.90
2022-09-23T00:47:15.877Z,99.90
2022-09-23T00:49:42.621Z,99.90
2022-09-23T00:52:12.558Z,99.90
2022-09-23T00:54:39.272Z,99.90
2022-09-23T00:57:06.908Z,99.90
2022-09-23T00:59:33.706Z,99.90
2022-09-23T01:02:00.543Z,99.90
2022-09-23T01:04:28.258Z,99.90
2022-09-23T01:06:54.973Z,99.90
2022-09-23T01:09:21.911Z,99.90
2022-09-23T01:11:53.007Z,99.90
2022-09-23T01:14:26.261Z,99.90
2022-09-23T01:17:03.160Z,99.90
2022-09-23T01:19:34.677Z,99.90
2022-09-23T01:22:36.088Z,99.90
2022-09-23T01:25:33.808Z,99.90
2022-09-23T01:28:09.805Z,99.90
2022-09-23T01:31:01.283Z,99.90
2022-09-23T01:33:41.261Z,99.90
2022-09-23T01:36:18.979Z,99.90
2022-09-23T01:38:59.137Z,99.90
2022-09-23T01:41:55.463Z,99.90
2022-09-23T01:44:47.144Z,99.90
2022-09-23T01:47:35.599Z,99.90
2022-09-23T01:50:28.361Z,99.90
2022-09-23T01:52:56.671Z,99.90
2022-09-23T01:55:35.530Z,99.90
2022-09-23T01:58:10.356Z,99.90
2022-09-23T02:00:40.673Z,99.90
2022-09-23T02:03:27.835Z,99.90
2022-09-23T02:06:03.716Z,99.90
2022-09-23T02:08:52.147Z,99.90
2022-09-23T02:11:18.964Z,99.90
2022-09-23T02:13:50.192Z,99.90
2022-09-23T02:16:43.733Z,99.90
2022-09-23T02:19:15.495Z,99.90
2022-09-23T02:21:49.814Z,99.90
2022-09-23T02:24:20.028Z,99.90
2022-09-23T02:27:05.634Z,99.90
2022-09-23T02:29:34.122Z,99.90
2022-09-23T02:32:30.116Z,99.90
2022-09-23T02:35:10.116Z,99.90
2022-09-23T02:37:45.918Z,99.90
2022-09-23T02:40:23.591Z,99.90
2022-09-23T02:43:12.348Z,99.90
2022-09-23T02:45:39.245Z,99.90
2022-09-23T02:48:27.091Z,99.90
2022-09-23T02:50:54.407Z,99.90
2022-09-23T02:53:23.580Z,99.90
2022-09-23T02:55:51.011Z,99.90
2022-09-23T02:58:17.793Z,99.90
2022-09-23T03:01:15.756Z,99.90
2022-09-23T03:04:06.772Z,99.90
2022-09-23T03:06:59.186Z,99.90
2022-09-23T03:09:27.261Z,99.90
2022-09-23T03:12:00.230Z,99.90
2022-09-23T03:14:40.024Z,99.90
2022-09-23T03:17:20.055Z,99.90
2022-09-23T03:19:50.620Z,99.90
2022-09-23T03:22:30.075Z,99.90
2022-09-23T03:25:00.267Z,99.90
2022-09-23T03:27:28.162Z,99.90
2022-09-23T03:29:54.953Z,99.90
2022-09-23T03:32:23.451Z,99.90
2022-09-23T03:34:51.565Z,99.90
2022-09-23T03:37:30.182Z,99.90
2022-09-23T03:40:20.738Z,99.90
2022-09-23T03:42:50.365Z,99.90
2022-09-23T03:45:20.494Z,99.90
2022-09-23T03:47:47.410Z,99.90
2022-09-23T03:50:14.292Z,99.90
2022-09-23T03:52:41.101Z,99.90
2022-09-23T03:55:08.446Z,99.90
2022-09-23T03:57:36.131Z,99.90
2022-09-23T04:00:05.308Z,99.90
2022-09-23T04:02:32.234Z,99.90
2022-09-23T04:04:59.072Z,99.90
2022-09-23T04:07:25.881Z,99.90
2022-09-23T04:09:52.813Z,99.90
2022-09-23T04:12:19.739Z,99.90
2022-09-23T04:14:46.449Z,99.90
2022-09-23T04:17:13.290Z,99.90
2022-09-23T04:19:40.188Z,99.90
2022-09-23T04:22:07.502Z,99.90
2022-09-23T04:24:34.421Z,99.90
2022-09-23T04:27:01.145Z,99.90
2022-09-23T04:29:27.945Z,99.90
2022-09-23T04:31:54.848Z,99.90
2022-09-23T04:34:21.984Z,99.90
2022-09-23T04:36:49.098Z,99.90
2022-09-23T04:39:16.730Z,99.90
2022-09-23T04:41:44.330Z,99.90
2022-09-23T04:44:12.096Z,99.90
2022-09-23T04:46:40.139Z,99.90
2022-09-23T04:49:07.111Z,99.90
2022-09-23T04:51:33.814Z,99.90
2022-09-23T04:54:00.635Z,99.90
2022-09-23T04:56:29.120Z,99.90
2022-09-23T04:58:58.149Z,99.90
2022-09-23T05:01:27.151Z,99.90
2022-09-23T05:04:01.552Z,99.90
2022-09-23T05:06:31.778Z,99.90
2022-09-23T05:08:59.203Z,99.90
2022-09-23T05:11:26.479Z,99.90
2022-09-23T05:13:54.182Z,99.90
2022-09-23T05:16:22.640Z,99.90
2022-09-23T05:18:50.157Z,99.90
2022-09-23T05:21:18.756Z,99.90
2022-09-23T05:23:56.596Z,99.90
2022-09-23T05:26:25.549Z,99.90
2022-09-23T05:28:53.820Z,99.90
2022-09-23T05:31:22.481Z,99.90
2022-09-23T05:33:55.331Z,99.90
2022-09-23T05:36:23.042Z,99.90
2022-09-23T05:38:50.741Z,99.90
2022-09-23T05:41:18.699Z,99.90
2022-09-23T05:43:45.544Z,99.90
2022-09-23T05:46:14.497Z,99.90
2022-09-23T05:48:41.904Z,99.90
2022-09-23T05:51:12.774Z,99.90
2022-09-23T05:53:40.406Z,99.90
2022-09-23T05:56:07.613Z,99.90
2022-09-23T05:58:34.683Z,99.90
2022-09-23T06:01:01.440Z,99.90
2022-09-23T06:03:28.363Z,99.90
2022-09-23T06:05:55.869Z,99.90
2022-09-23T06:08:23.340Z,99.90
2022-09-23T06:10:54.337Z,99.90
2022-09-23T06:13:21.542Z,99.90
2022-09-23T06:15:48.396Z,99.90
2022-09-23T06:18:15.218Z,99.90
2022-09-23T06:20:43.281Z,99.90
2022-09-23T06:23:11.103Z,99.90
2022-09-23T06:25:40.653Z,99.90
2022-09-23T06:28:11.491Z,99.90
2022-09-23T06:30:42.509Z,99.90
2022-09-23T06:33:10.100Z,99.90
2022-09-23T06:35:36.986Z,99.90
2022-09-23T06:38:04.615Z,99.90
2022-09-23T06:40:31.641Z,99.90
2022-09-23T06:43:00.046Z,99.90
2022-09-23T06:45:27.514Z,99.90
2022-09-23T06:47:57.879Z,99.90
2022-09-23T06:50:26.264Z,99.90
2022-09-23T06:52:56.092Z,99.90
2022-09-23T06:55:27.171Z,99.90
2022-09-23T06:57:54.962Z,99.90
2022-09-23T07:00:21.723Z,99.90
2022-09-23T07:02:48.935Z,99.90
2022-09-23T07:05:18.902Z,99.90
2022-09-23T07:07:45.574Z,99.90
2022-09-23T07:10:12.334Z,99.90
2022-09-23T07:12:39.107Z,99.90
2022-09-23T07:15:06.458Z,99.90
2022-09-23T07:17:33.186Z,99.90
2022-09-23T07:20:00.125Z,99.90
2022-09-23T07:22:26.863Z,99.90
2022-09-23T07:24:56.747Z,99.90
2022-09-23T07:27:24.576Z,99.90
2022-09-23T07:29:52.140Z,99.90
2022-09-23T07:32:20.290Z,99.90
2022-09-23T07:34:47.283Z,99.90
2022-09-23T07:37:17.652Z,99.90
2022-09-23T07:39:45.077Z,99.90
2022-09-23T07:42:14.232Z,99.90
2022-09-23T07:44:44.030Z,99.90
2022-09-23T07:47:10.995Z,99.90
2022-09-23T07:49:38.128Z,99.90
2022-09-23T07:52:05.077Z,99.90
2022-09-23T07:54:32.173Z,99.90
2022-09-23T07:56:59.705Z,99.90
2022-09-23T07:59:27.280Z,99.90
2022-09-23T08:01:54.271Z,99.90
2022-09-23T08:04:22.103Z,99.90
2022-09-23T08:06:54.129Z,99.90
2022-09-23T08:09:23.448Z,99.90
2022-09-23T08:11:51.038Z,99.90
2022-09-23T08:14:18.706Z,99.90
2022-09-23T08:16:45.754Z,99.90
2022-09-23T08:19:12.686Z,99.90
2022-09-23T08:21:40.281Z,99.90
2022-09-23T08:24:12.699Z,99.90
2022-09-23T08:26:39.389Z,99.90
2022-09-23T08:29:06.799Z,99.90
2022-09-23T08:31:33.586Z,99.90
2022-09-23T08:34:00.356Z,99.90
2022-09-23T08:36:27.262Z,99.90
2022-09-23T08:38:54.290Z,99.90
2022-09-23T08:41:30.224Z,99.90
2022-09-23T08:44:02.136Z,99.90
2022-09-23T08:46:33.043Z,99.90
2022-09-23T08:49:00.175Z,99.90
2022-09-23T08:51:35.160Z,99.90
2022-09-23T08:54:01.911Z,99.90
2022-09-23T08:56:28.994Z,99.90
2022-09-23T08:59:07.873Z,99.90
2022-09-23T09:01:59.343Z,99.90
2022-09-23T09:04:28.538Z,99.90
2022-09-23T09:07:36.251Z,99.90
2022-09-23T09:10:18.716Z,99.90
2022-09-23T09:13:03.411Z,99.90
2022-09-23T09:15:30.244Z,99.90
2022-09-23T09:18:16.691Z,99.90
2022-09-23T09:21:10.703Z,99.90
2022-09-23T09:23:58.020Z,99.90
2022-09-23T09:26:34.943Z,99.90
2022-09-23T09:29:34.325Z,99.90
2022-09-23T09:32:02.936Z,99.90
2022-09-23T09:34:54.593Z,99.90
2022-09-23T09:37:36.663Z,99.90
2022-09-23T09:40:03.688Z,99.90
2022-09-23T09:42:40.977Z,99.90
2022-09-23T09:45:24.208Z,99.90
2022-09-23T09:48:13.508Z,99.90
2022-09-23T09:50:51.974Z,99.90
2022-09-23T09:53:35.791Z,99.90
2022-09-23T09:56:07.948Z,99.90
2022-09-23T09:59:01.682Z,99.90
2022-09-23T10:01:32.534Z,99.90
2022-09-23T10:04:19.579Z,99.90
2022-09-23T10:07:15.739Z,99.90
2022-09-23T10:09:50.407Z,99.90
2022-09-23T10:12:21.797Z,99.90
2022-09-23T10:14:51.255Z,99.90
2022-09-23T10:17:20.985Z,99.90
2022-09-23T10:19:57.993Z,99.90
2022-09-23T10:22:27.149Z,99.90
2022-09-23T10:24:54.088Z,99.90
2022-09-23T10:27:32.043Z,99.90
2022-09-23T10:30:01.032Z,99.90
2022-09-23T10:32:43.166Z,99.90
2022-09-23T10:35:10.706Z,99.90
2022-09-23T10:37:53.497Z,99.90
2022-09-23T10:40:48.997Z,99.90
2022-09-23T10:43:40.461Z,99.90
2022-09-23T10:46:38.316Z,99.90
2022-09-23T10:49:27.843Z,99.90
2022-09-23T10:52:28.758Z,99.90
2022-09-23T10:55:08.018Z,99.90
2022-09-23T10:57:57.630Z,99.90
2022-09-23T11:00:30.211Z,99.90
2022-09-23T11:03:25.833Z,99.90
2022-09-23T11:06:18.310Z,99.90
2022-09-23T11:09:06.811Z,99.90
2022-09-23T11:11:55.561Z,99.90
2022-09-23T11:14:55.163Z,99.90
2022-09-23T11:17:35.911Z,99.90
2022-09-23T11:20:13.592Z,99.90
2022-09-23T11:23:00.236Z,99.90
2022-09-23T11:25:58.508Z,99.90
2022-09-23T11:28:30.086Z,99.90
2022-09-23T11:31:25.174Z,99.90
2022-09-23T11:34:14.211Z,99.90
2022-09-23T11:36:50.965Z,99.90
2022-09-23T11:39:20.549Z,99.90
2022-09-23T11:41:47.292Z,99.90
2022-09-23T11:44:18.162Z,99.90
2022-09-23T11:46:46.852Z,99.90
2022-09-23T11:49:37.352Z,99.90
2022-09-23T11:52:24.710Z,99.90
2022-09-23T11:55:15.598Z,99.90
2022-09-23T11:58:00.018Z,99.90
2022-09-23T12:00:34.318Z,99.90
2022-09-23T12:03:30.613Z,99.90
2022-09-23T12:06:18.192Z,99.90
2022-09-23T12:08:45.005Z,99.90
2022-09-23T12:11:37.913Z,99.90
2022-09-23T12:14:15.288Z,99.90
2022-09-23T12:16:54.307Z,99.90
2022-09-23T12:19:47.299Z,99.90
2022-09-23T12:22:39.171Z,99.90
2022-09-23T12:25:33.190Z,99.90
2022-09-23T12:28:21.031Z,99.90
2022-09-23T12:30:47.862Z,99.90
2022-09-23T12:33:24.695Z,99.90
2022-09-23T12:35:55.891Z,99.90
2022-09-23T12:38:30.244Z,99.90
2022-09-23T12:40:57.160Z,99.90
2022-09-23T12:43:34.821Z,99.60
2022-09-23T12:46:28.313Z,99.30
2022-09-23T12:48:58.209Z,98.70
2022-09-23T12:51:26.236Z,98.70
2022-09-23T12:53:59.799Z,98.50
2022-09-23T12:56:29.812Z,98.40
2022-09-23T12:59:33.479Z,98.20
2022-09-23T13:02:20.980Z,98.40
2022-09-23T13:05:17.480Z,98.30
2022-09-23T13:07:46.296Z,98.10
2022-09-23T13:10:34.026Z,97.80
2022-09-23T13:13:01.372Z,98.10
2022-09-23T13:15:35.937Z,97.60
2022-09-23T13:18:20.776Z,97.50
2022-09-23T13:20:48.730Z,96.90
2022-09-23T13:23:22.930Z,96.70
2022-09-23T13:25:54.072Z,96.70
2022-09-23T13:28:33.615Z,96.80
2022-09-23T13:31:13.697Z,96.30
2022-09-23T13:34:00.834Z,96.10
2022-09-23T13:36:27.566Z,96.10
2022-09-23T13:39:16.618Z,96.10
2022-09-23T13:41:44.292Z,95.90
2022-09-23T13:44:18.845Z,95.90
2022-09-23T13:46:50.526Z,96.10
2022-09-23T13:49:30.987Z,96.80
2022-09-23T13:51:57.749Z,96.00
2022-09-23T13:54:32.083Z,96.10
2022-09-23T13:56:59.719Z,96.60
2022-09-23T13:59:41.605Z,96.10
2022-09-23T14:02:13.535Z,96.50
2022-09-23T14:04:40.545Z,96.30
2022-09-23T14:07:07.745Z,96.20
2022-09-23T14:09:35.579Z,95.90
2022-09-23T14:12:04.625Z,95.50
2022-09-23T14:14:31.645Z,95.50
2022-09-23T14:16:58.463Z,95.60
2022-09-23T14:19:25.297Z,94.70
2022-09-23T14:21:53.406Z,95.10
2022-09-23T14:24:31.201Z,95.30
2022-09-23T14:27:07.248Z,94.80
2022-09-23T14:29:38.151Z,95.00
2022-09-23T14:32:13.624Z,95.40
2022-09-23T14:35:08.261Z,95.00
2022-09-23T14:37:56.828Z,95.00
2022-09-23T14:40:28.118Z,94.60
2022-09-23T14:43:23.132Z,94.70
2022-09-23T14:45:51.625Z,94.20
2022-09-23T14:48:25.483Z,94.30
2022-09-23T14:50:57.693Z,94.70
2022-09-23T14:53:41.315Z,94.90
2022-09-23T14:56:08.047Z,94.80
2022-09-23T14:58:57.344Z,95.10
2022-09-23T15:01:33.382Z,95.10
2022-09-23T15:04:13.339Z,95.30
2022-09-23T15:06:47.713Z,95.20
2022-09-23T15:09:42.178Z,95.30
2022-09-23T15:12:14.077Z,95.50
2022-09-23T15:14:42.959Z,95.70
2022-09-23T15:17:34.035Z,95.70
2022-09-23T15:20:03.488Z,96.00
2022-09-23T15:22:30.470Z,96.30
2022-09-23T15:25:34.039Z,96.50
2022-09-23T15:28:11.046Z,96.50
2022-09-23T15:30:38.913Z,96.60
2022-09-23T15:33:06.291Z,96.70
2022-09-23T15:35:33.399Z,97.00
2022-09-23T15:38:01.823Z,97.40
2022-09-23T15:40:36.011Z,97.70
2022-09-23T15:43:20.145Z,97.60
2022-09-23T15:45:50.375Z,97.90
2022-09-23T15:48:22.723Z,97.80
2022-09-23T15:50:50.898Z,97.80
2022-09-23T15:53:26.579Z,97.70
2022-09-23T15:55:54.050Z,97.70
2022-09-23T15:58:21.968Z,97.80
2022-09-23T16:00:55.905Z,97.60
2022-09-23T16:03:30.134Z,97.50
2022-09-23T16:06:01.005Z,97.50
2022-09-23T16:08:28.686Z,97.50
2022-09-23T16:10:55.868Z,97.60
2022-09-23T16:13:23.053Z,97.70
2022-09-23T16:15:50.024Z,97.80
2022-09-23T16:18:16.855Z,97.90
2022-09-23T16:20:45.071Z,98.00
2022-09-23T16:23:33.864Z,98.10
2022-09-23T16:26:02.892Z,98.20
2022-09-23T16:28:29.603Z,98.30
2022-09-23T16:30:56.379Z,98.40
2022-09-23T16:33:23.080Z,98.60
2022-09-23T16:35:50.466Z,98.70
2022-09-23T16:38:17.512Z,99.10
2022-09-23T16:40:47.283Z,99.10
2022-09-23T16:43:14.339Z,99.10
2022-09-23T16:45:41.208Z,99.20
2022-09-23T16:48:07.981Z,99.60
2022-09-23T16:50:34.819Z,99.50
2022-09-23T16:53:01.648Z,99.60
2022-09-23T16:55:28.529Z,99.70
2022-09-23T16:57:55.658Z,99.90
2022-09-23T17:00:41.133Z,99.90
2022-09-23T17:03:26.746Z,99.90
2022-09-23T17:05:54.065Z,99.90
2022-09-23T17:08:20.886Z,99.90
2022-09-23T17:10:55.775Z,99.90
2022-09-23T17:13:22.614Z,99.90
2022-09-23T17:15:49.770Z,99.90
2022-09-23T17:18:19.411Z,99.90
2022-09-23T17:21:16.480Z,99.90
2022-09-23T17:23:43.428Z,99.90
2022-09-23T17:26:12.466Z,99.90
2022-09-23T17:28:39.393Z,99.90
2022-09-23T17:31:06.759Z,99.90
2022-09-23T17:33:37.655Z,99.90
2022-09-23T17:36:09.119Z,99.90
2022-09-23T17:38:36.296Z,99.90
2022-09-23T17:41:04.810Z,99.90
2022-09-23T17:43:32.816Z,99.90
2022-09-23T17:46:10.740Z,99.90
2022-09-23T17:48:39.247Z,99.90
2022-09-23T17:51:09.477Z,99.90
2022-09-23T17:53:38.433Z,99.90
2022-09-23T17:56:14.867Z,99.90
2022-09-23T17:58:44.420Z,99.90
2022-09-23T18:01:13.287Z,99.90
2022-09-23T18:03:43.310Z,99.90
2022-09-23T18:06:11.559Z,99.90
2022-09-23T18:08:38.939Z,99.90
2022-09-23T18:11:25.824Z,99.90
2022-09-23T18:14:21.663Z,99.90
2022-09-23T18:16:53.435Z,99.90
2022-09-23T18:19:24.418Z,99.90
2022-09-23T18:21:56.341Z,99.90
2022-09-23T18:24:38.729Z,99.90
2022-09-23T18:27:06.509Z,99.90
2022-09-23T18:29:34.292Z,99.90
2022-09-23T18:32:01.740Z,99.90
2022-09-23T18:34:28.676Z,99.90
2022-09-23T18:36:56.234Z,99.90
2022-09-23T18:39:23.069Z,99.90
2022-09-23T18:41:50.320Z,99.90
2022-09-23T18:44:17.814Z,99.90
2022-09-23T18:46:44.799Z,99.90
2022-09-23T18:49:29.886Z,99.90
2022-09-23T18:51:57.507Z,99.90
2022-09-23T18:54:26.265Z,99.90
2022-09-23T18:56:53.134Z,99.90
2022-09-23T18:59:23.645Z,99.90
2022-09-23T19:01:50.909Z,99.90
2022-09-23T19:04:19.592Z,99.90
2022-09-23T19:06:46.728Z,99.90
2022-09-23T19:09:15.105Z,99.90
2022-09-23T19:11:42.106Z,99.90
2022-09-23T19:14:11.378Z,99.90
2022-09-23T19:16:39.448Z,99.90
2022-09-23T19:19:06.259Z,99.90
2022-09-23T19:21:33.516Z,99.90
2022-09-23T19:24:05.531Z,99.90
2022-09-23T19:26:40.289Z,99.90
2022-09-23T19:29:08.572Z,99.90
2022-09-23T19:31:40.607Z,99.90
2022-09-23T19:34:23.818Z,99.90
2022-09-23T19:36:50.706Z,99.90
2022-09-23T19:39:22.413Z,99.90
2022-09-23T19:41:50.470Z,99.90
2022-09-23T19:44:17.217Z,99.90
2022-09-23T19:46:45.514Z,99.90
2022-09-23T19:49:12.886Z,99.90
2022-09-23T19:51:39.925Z,99.90
2022-09-23T19:54:07.614Z,99.90
2022-09-23T19:56:34.509Z,99.90
2022-09-23T19:59:02.985Z,99.90
2022-09-23T20:01:30.388Z,99.90
2022-09-23T20:03:57.328Z,99.90
2022-09-23T20:06:24.071Z,99.90
2022-09-23T20:08:50.786Z,99.90
2022-09-23T20:11:26.163Z,99.90
2022-09-23T20:13:59.441Z,99.90
2022-09-23T20:16:27.915Z,99.90
2022-09-23T20:18:55.704Z,99.90
2022-09-23T20:21:22.459Z,99.90
2022-09-23T20:23:49.149Z,99.90
2022-09-23T20:26:34.499Z,99.90
2022-09-23T20:29:01.432Z,99.90
2022-09-23T20:31:32.148Z,99.90
2022-09-23T20:33:59.003Z,99.90
2022-09-23T20:36:26.850Z,99.90
2022-09-23T20:38:54.739Z,99.90
2022-09-23T20:41:21.520Z,99.90
2022-09-23T20:43:48.276Z,99.90
2022-09-23T20:46:16.276Z,99.90
2022-09-23T20:48:43.183Z,99.90
2022-09-23T20:51:10.160Z,99.90
2022-09-23T20:53:36.938Z,99.90
2022-09-23T20:56:05.829Z,99.90
2022-09-23T20:58:36.506Z,99.90
2022-09-23T21:01:04.452Z,99.90
2022-09-23T21:03:31.848Z,99.90
2022-09-23T21:06:02.083Z,99.90
2022-09-23T21:08:28.916Z,99.90
2022-09-23T21:10:58.859Z,99.90
2022-09-23T21:13:25.622Z,99.90
2022-09-23T21:15:52.395Z,99.90
2022-09-23T21:18:22.429Z,99.90
2022-09-23T21:20:59.487Z,99.90
2022-09-23T21:23:27.376Z,99.90
2022-09-23T21:26:11.535Z,99.90
2022-09-23T21:28:42.885Z,99.90
2022-09-23T21:31:23.065Z,99.90
2022-09-23T21:34:20.114Z,99.90
2022-09-23T21:36:47.858Z,99.90
2022-09-23T21:39:14.644Z,99.90
2022-09-23T21:41:41.327Z,99.90
2022-09-23T21:44:08.556Z,99.90
2022-09-23T21:46:36.062Z,99.90
2022-09-23T21:49:03.911Z,99.90
2022-09-23T21:51:40.525Z,99.90
2022-09-23T21:54:15.749Z,99.90
2022-09-23T21:56:43.391Z,99.90
2022-09-23T21:59:10.428Z,99.90
2022-09-23T22:01:39.200Z,99.90
2022-09-23T22:04:10.610Z,99.90
2022-09-23T22:06:38.376Z,99.90
2022-09-23T22:09:13.481Z,99.90
2022-09-23T22:11:59.478Z,99.90
2022-09-23T22:14:26.538Z,99.90
2022-09-23T22:16:57.255Z,99.90
2022-09-23T22:19:28.767Z,99.90
2022-09-23T22:21:56.089Z,99.90
2022-09-23T22:24:23.081Z,99.90
2022-09-23T22:26:50.043Z,99.90
2022-09-23T22:29:35.315Z,99.90
2022-09-23T22:32:27.160Z,99.90
2022-09-23T22:34:54.089Z,99.90
2022-09-23T22:37:25.616Z,99.90
2022-09-23T22:39:52.882Z,99.90
2022-09-23T22:42:22.631Z,99.90
2022-09-23T22:44:50.220Z,99.90
2022-09-23T22:47:20.313Z,99.90
2022-09-23T22:49:47.443Z,99.90
2022-09-23T22:52:16.063Z,99.90
2022-09-23T22:54:43.023Z,99.90
2022-09-23T22:57:09.889Z,99.90
2022-09-23T22:59:37.424Z,99.90
2022-09-23T23:02:05.132Z,99.90
2022-09-23T23:04:32.075Z,99.90
2022-09-23T23:06:58.921Z,99.90
2022-09-23T23:09:25.730Z,99.90
2022-09-23T23:11:52.526Z,99.90
2022-09-23T23:14:19.414Z,99.90
2022-09-23T23:16:46.413Z,99.90
2022-09-23T23:19:14.749Z,99.90
2022-09-23T23:21:44.758Z,99.90
2022-09-23T23:24:14.890Z,99.90
2022-09-23T23:26:41.531Z,99.90
2022-09-23T23:29:09.648Z,99.90
2022-09-23T23:31:36.435Z,99.90
2022-09-23T23:34:03.398Z,99.90
2022-09-23T23:36:31.042Z,99.90
2022-09-23T23:38:57.812Z,99.90
2022-09-23T23:41:24.495Z,99.90
2022-09-23T23:43:56.502Z,99.90
2022-09-23T23:46:27.546Z,99.90
2022-09-23T23:48:55.190Z,99.90
2022-09-23T23:51:22.815Z,99.90
2022-09-23T23:53:49.484Z,99.90
2022-09-23T23:56:18.307Z,99.90
2022-09-23T23:58:45.345Z,99.90
